WetterOnline ( https://www.wetteronline.de )

Wetter aktuell Pfofeld

Aktuelles Wetter: Weißenburg (424m)

6-stündlich | Neueste Meldungen
Ortszeit Temperatur Wetter
Mi, 17.07. 20:00 22.3° C fast wolkenlos
Mi, 17.07. 14:00 22.9° C bewölkt
Mi, 17.07. 8:00 16.2° C bedeckt
Mi, 17.07. 2:00 14.7° C wolkenlos
Di, 16.07. 20:00 23.2° C wolkenlos
Di, 16.07. 14:00 23.1° C wolkig
Di, 16.07. 8:00 19.2° C bedeckt
Di, 16.07. 2:00 18.5° C starker Regen
Ortszeit Temperatur Wetter
Do, 18.07. 0:00 15.9° C leicht bewölkt
Mi, 17.07. 23:50 15.9° C leicht bewölkt
Mi, 17.07. 23:40 16.1° C wolkig
Mi, 17.07. 23:30 16.3° C wolkig
Mi, 17.07. 23:20 16.3° C wolkig
Mi, 17.07. 23:10 16.8° C wolkig
Mi, 17.07. 23:00 17.3° C leicht bewölkt
Mi, 17.07. 22:30 17.4° C fast wolkenlos
Mi, 17.07. 22:00 18.8° C wolkenlos
Mi, 17.07. 21:30 19.6° C leicht bewölkt
Mi, 17.07. 21:00 20.8° C wolkenlos
Ortszeit Relative Feuchte Sichtweite
Mi, 17.07. 20:00 56% >70 km
Mi, 17.07. 14:00 49% >70 km
Mi, 17.07. 8:00 89% 40 km
Mi, 17.07. 2:00 91% 45 km
Di, 16.07. 20:00 51% 65 km
Di, 16.07. 14:00 72% >70 km
Di, 16.07. 8:00 94% 29 km
Di, 16.07. 2:00 92% 2.6 km
Ortszeit Relative Feuchte Sichtweite
Do, 18.07. 0:00 89% 60 km
Mi, 17.07. 23:50 89% -
Mi, 17.07. 23:40 89% -
Mi, 17.07. 23:30 89% 50 km
Mi, 17.07. 23:20 89% -
Mi, 17.07. 23:10 87% -
Mi, 17.07. 23:00 84% 55 km
Mi, 17.07. 22:30 82% >70 km
Mi, 17.07. 22:00 76% 20 km
Mi, 17.07. 21:30 71% 65 km
Mi, 17.07. 21:00 61% >70 km
Ortszeit Niederschlagsmenge Niederschlagsart
Mi, 17.07. 20:00 0.0 l/m2 in 12 Std. -
Mi, 17.07. 14:00 0.0 l/m2 in 6 Std. -
Mi, 17.07. 8:00 0.0 l/m2 in 12 Std. -
Mi, 17.07. 2:00 0.0 l/m2 in 6 Std. -
Di, 16.07. 20:00 0.4 l/m2 in 12 Std. Regen
Di, 16.07. 14:00 0.1 l/m2 in 6 Std. Regen
Di, 16.07. 8:00 7 l/m2 in 12 Std. Regen
Di, 16.07. 2:00 3 l/m2 in 6 Std. Regen
Ortszeit Niederschlagsmenge Niederschlagsart
Do, 18.07. 0:00 0.0 l/m2 in 1 Std. -
Mi, 17.07. 23:50 keine Meldung -
Mi, 17.07. 23:40 keine Meldung -
Mi, 17.07. 23:30 0.0 l/m2 in 30 Min -
Mi, 17.07. 23:20 keine Meldung -
Mi, 17.07. 23:10 keine Meldung -
Mi, 17.07. 23:00 0.0 l/m2 in 1 Std. -
Mi, 17.07. 22:30 0.0 l/m2 in 30 Min -
Mi, 17.07. 22:00 0.0 l/m2 in 1 Std. -
Mi, 17.07. 21:30 0.0 l/m2 in 30 Min -
Mi, 17.07. 21:00 0.0 l/m2 in 1 Std. -
Ortszeit Stärke Spitze Richtung
km/h Bft. km/h Grad Sektor
Mi, 17.07. 20:00 4 1 22 330° NW
Mi, 17.07. 14:00 11 2 22 270° W
Mi, 17.07. 8:00 4 1 11 210° SW
Mi, 17.07. 2:00 7 2 18 180° S
Di, 16.07. 20:00 14 3 29 260° W
Di, 16.07. 14:00 11 2 29 180° S
Di, 16.07. 8:00 7 2 22 200° S
Di, 16.07. 2:00 4 1 61 300° NW
Ortszeit Stärke Spitze Richtung
km/h Bft. km/h Grad Sektor
Do, 18.07. 0:00 6 1 7 180° S
Mi, 17.07. 23:50 6 1 - 180° S
Mi, 17.07. 23:40 6 1 - 190° S
Mi, 17.07. 23:30 6 1 7 160° S
Mi, 17.07. 23:20 6 1 - 160° S
Mi, 17.07. 23:10 4 1 - 210° SW
Mi, 17.07. 23:00 4 1 7 230° SW
Mi, 17.07. 22:30 6 1 7 180° S
Mi, 17.07. 22:00 4 1 7 200° S
Mi, 17.07. 21:30 6 1 7 190° S
Mi, 17.07. 21:00 4 1 7 220° SW
Ortszeit Untergrenze Bedeckung Gattung
total tief tief mittel hoch
Mi, 17.07. 20:00 2100 m 1/8 1/8 - - -
Mi, 17.07. 14:00 1470 m 7/8 7/8 - - -
Mi, 17.07. 8:00 1500 m 8/8 8/8 - - -
Mi, 17.07. 2:00 - 0/8 0/8 - - -
Di, 16.07. 20:00 - 0/8 0/8 - - -
Di, 16.07. 14:00 1800 m 8/8 1/8 - - -
Di, 16.07. 8:00 4200 m 8/8 8/8 - - -
Di, 16.07. 2:00 1500 m 8/8 8/8 - - -
Ortszeit Bedeckungsgrad in Achtel und Wolkenuntergrenze
Do, 18.07. 0:00 3(2100m)
Mi, 17.07. 23:50 3(2100m)
Mi, 17.07. 23:40 5
Mi, 17.07. 23:30 6(2100m)
Mi, 17.07. 23:20 6(2100m)
Mi, 17.07. 23:10 6
Mi, 17.07. 23:00 4(2100m)
Mi, 17.07. 22:30 1(2100m)
Mi, 17.07. 22:00 keine Wolken
Mi, 17.07. 21:30 4(2100m)
Mi, 17.07. 21:00 keine Wolken
Ortszeit Luftdruck NN (hPa) Tendenz (hPa in 3 Std.)
Mi, 17.07. 20:00 1021 + 0,1
Mi, 17.07. 14:00 1020 + 0,2
Mi, 17.07. 8:00 1021 + 1,2
Mi, 17.07. 2:00 1020 + 0,8
Di, 16.07. 20:00 1015 + 1,0
Di, 16.07. 14:00 1014 - 0,2
Di, 16.07. 8:00 1014 + 1,4
Di, 16.07. 2:00 1014 + 3,9
Ortszeit Luftdruck NN (hPa) Tendenz (hPa in 3 Std.)
Do, 18.07. 0:00 1023 + 1,2
Mi, 17.07. 23:50 1023 keine Meldung
Mi, 17.07. 23:40 1023 keine Meldung
Mi, 17.07. 23:30 1023 + 1,3
Mi, 17.07. 23:20 1023 keine Meldung
Mi, 17.07. 23:10 1023 keine Meldung
Mi, 17.07. 23:00 1023 + 1,2
Mi, 17.07. 22:30 1023 + 1,5
Mi, 17.07. 22:00 1022 + 1,5
Mi, 17.07. 21:30 1022 + 1,1
Mi, 17.07. 21:00 1021 + 0,5
Ortszeit Schneehöhe (cm)
Mi, 17.07. 20:00 0
Mi, 17.07. 14:00 0
Mi, 17.07. 8:00 0
Mi, 17.07. 2:00 0
Di, 16.07. 20:00 0
Di, 16.07. 14:00 0
Di, 16.07. 8:00 0
Di, 16.07. 2:00 0
Ortszeit Schneehöhe (cm)
Do, 18.07. 0:00 0
Mi, 17.07. 23:50 0
Mi, 17.07. 23:40 -
Mi, 17.07. 23:30 0
Mi, 17.07. 23:20 0
Mi, 17.07. 23:10 -
Mi, 17.07. 23:00 0
Mi, 17.07. 22:30 0
Mi, 17.07. 22:00 0
Mi, 17.07. 21:30 0
Mi, 17.07. 21:00 0
Link zu dieser Seite / Seite empfehlen

Das Wetter in ...